sensor_id;sensor_type;location;lat;lon;timestamp;P1;durP1;ratioP1;P2;durP2;ratioP2
35969;SDS011;22448;51.298;6.430;2023-11-21T00:01:16;42.03;;;20.58;;
35969;SDS011;22448;51.298;6.430;2023-11-21T00:03:44;37.35;;;19.80;;
35969;SDS011;22448;51.298;6.430;2023-11-21T00:06:11;38.42;;;20.40;;
35969;SDS011;22448;51.298;6.430;2023-11-21T00:08:44;41.97;;;21.00;;
35969;SDS011;22448;51.298;6.430;2023-11-21T00:11:11;47.08;;;21.42;;
35969;SDS011;22448;51.298;6.430;2023-11-21T00:13:38;49.08;;;22.10;;
35969;SDS011;22448;51.298;6.430;2023-11-21T00:16:06;48.03;;;22.83;;
35969;SDS011;22448;51.298;6.430;2023-11-21T00:18:34;52.45;;;22.27;;
35969;SDS011;22448;51.298;6.430;2023-11-21T00:21:02;49.45;;;24.33;;
35969;SDS011;22448;51.298;6.430;2023-11-21T00:23:30;44.80;;;23.08;;
35969;SDS011;22448;51.298;6.430;2023-11-21T00:25:57;53.35;;;24.33;;
35969;SDS011;22448;51.298;6.430;2023-11-21T00:28:24;50.22;;;24.20;;
35969;SDS011;22448;51.298;6.430;2023-11-21T00:30:52;51.15;;;23.20;;
35969;SDS011;22448;51.298;6.430;2023-11-21T00:33:20;57.17;;;26.17;;
35969;SDS011;22448;51.298;6.430;2023-11-21T00:35:47;52.00;;;26.13;;
35969;SDS011;22448;51.298;6.430;2023-11-21T00:38:15;66.38;;;27.92;;
35969;SDS011;22448;51.298;6.430;2023-11-21T00:40:42;59.20;;;26.83;;
35969;SDS011;22448;51.298;6.430;2023-11-21T00:43:09;64.47;;;26.70;;
35969;SDS011;22448;51.298;6.430;2023-11-21T00:45:36;54.17;;;26.95;;
35969;SDS011;22448;51.298;6.430;2023-11-21T00:48:03;61.65;;;27.13;;
35969;SDS011;22448;51.298;6.430;2023-11-21T00:50:31;50.42;;;25.63;;
35969;SDS011;22448;51.298;6.430;2023-11-21T00:52:59;55.25;;;25.65;;
35969;SDS011;22448;51.298;6.430;2023-11-21T00:55:26;55.53;;;26.98;;
35969;SDS011;22448;51.298;6.430;2023-11-21T00:57:54;58.72;;;26.58;;
35969;SDS011;22448;51.298;6.430;2023-11-21T01:00:21;65.80;;;28.58;;
35969;SDS011;22448;51.298;6.430;2023-11-21T01:02:50;59.13;;;26.45;;
35969;SDS011;22448;51.298;6.430;2023-11-21T01:05:17;66.00;;;27.85;;
35969;SDS011;22448;51.298;6.430;2023-11-21T01:07:45;59.08;;;26.83;;
35969;SDS011;22448;51.298;6.430;2023-11-21T01:10:12;60.45;;;29.15;;
35969;SDS011;22448;51.298;6.430;2023-11-21T01:12:39;63.90;;;27.77;;
35969;SDS011;22448;51.298;6.430;2023-11-21T01:15:07;53.58;;;25.88;;
35969;SDS011;22448;51.298;6.430;2023-11-21T01:17:39;43.28;;;20.20;;
35969;SDS011;22448;51.298;6.430;2023-11-21T01:20:06;64.53;;;27.98;;
35969;SDS011;22448;51.298;6.430;2023-11-21T01:22:39;66.82;;;28.73;;
35969;SDS011;22448;51.298;6.430;2023-11-21T01:25:06;60.60;;;28.08;;
35969;SDS011;22448;51.298;6.430;2023-11-21T01:27:34;62.40;;;27.80;;
35969;SDS011;22448;51.298;6.430;2023-11-21T01:30:02;65.22;;;29.10;;
35969;SDS011;22448;51.298;6.430;2023-11-21T01:32:29;68.45;;;28.38;;
35969;SDS011;22448;51.298;6.430;2023-11-21T01:34:57;67.38;;;29.98;;
35969;SDS011;22448;51.298;6.430;2023-11-21T01:37:25;77.20;;;30.50;;
35969;SDS011;22448;51.298;6.430;2023-11-21T01:39:54;71.18;;;29.23;;
35969;SDS011;22448;51.298;6.430;2023-11-21T01:42:22;61.28;;;27.55;;
35969;SDS011;22448;51.298;6.430;2023-11-21T01:44:49;63.03;;;28.98;;
35969;SDS011;22448;51.298;6.430;2023-11-21T01:47:17;67.38;;;28.27;;
35969;SDS011;22448;51.298;6.430;2023-11-21T01:49:44;61.20;;;27.52;;
35969;SDS011;22448;51.298;6.430;2023-11-21T01:52:12;65.40;;;29.00;;
35969;SDS011;22448;51.298;6.430;2023-11-21T01:54:40;61.63;;;28.02;;
35969;SDS011;22448;51.298;6.430;2023-11-21T01:57:09;74.72;;;29.38;;
35969;SDS011;22448;51.298;6.430;2023-11-21T01:59:37;68.32;;;28.73;;
35969;SDS011;22448;51.298;6.430;2023-11-21T02:02:05;67.10;;;30.23;;
35969;SDS011;22448;51.298;6.430;2023-11-21T02:04:35;71.97;;;27.80;;
35969;SDS011;22448;51.298;6.430;2023-11-21T02:07:03;67.97;;;29.63;;
35969;SDS011;22448;51.298;6.430;2023-11-21T02:09:34;64.72;;;27.92;;
35969;SDS011;22448;51.298;6.430;2023-11-21T02:12:04;68.85;;;29.45;;
35969;SDS011;22448;51.298;6.430;2023-11-21T02:14:32;62.97;;;26.60;;
35969;SDS011;22448;51.298;6.430;2023-11-21T02:16:59;62.65;;;27.00;;
35969;SDS011;22448;51.298;6.430;2023-11-21T02:19:27;56.25;;;27.40;;
35969;SDS011;22448;51.298;6.430;2023-11-21T02:21:59;62.88;;;27.92;;
35969;SDS011;22448;51.298;6.430;2023-11-21T02:26:57;59.20;;;26.05;;
35969;SDS011;22448;51.298;6.430;2023-11-21T02:29:25;70.10;;;28.98;;
35969;SDS011;22448;51.298;6.430;2023-11-21T02:31:55;62.95;;;27.80;;
35969;SDS011;22448;51.298;6.430;2023-11-21T02:34:23;69.75;;;28.30;;
35969;SDS011;22448;51.298;6.430;2023-11-21T02:36:52;75.07;;;29.50;;
35969;SDS011;22448;51.298;6.430;2023-11-21T02:39:20;68.40;;;28.33;;
35969;SDS011;22448;51.298;6.430;2023-11-21T02:41:49;71.18;;;28.33;;
35969;SDS011;22448;51.298;6.430;2023-11-21T02:44:16;71.50;;;30.38;;
35969;SDS011;22448;51.298;6.430;2023-11-21T02:46:43;76.90;;;31.83;;
35969;SDS011;22448;51.298;6.430;2023-11-21T02:49:11;76.07;;;30.15;;
35969;SDS011;22448;51.298;6.430;2023-11-21T02:51:41;77.00;;;30.17;;
35969;SDS011;22448;51.298;6.430;2023-11-21T02:54:08;76.05;;;29.48;;
35969;SDS011;22448;51.298;6.430;2023-11-21T02:56:36;73.88;;;32.08;;
35969;SDS011;22448;51.298;6.430;2023-11-21T02:59:03;78.18;;;31.83;;
35969;SDS011;22448;51.298;6.430;2023-11-21T03:01:31;76.68;;;29.58;;
35969;SDS011;22448;51.298;6.430;2023-11-21T03:03:58;77.40;;;30.50;;
35969;SDS011;22448;51.298;6.430;2023-11-21T03:06:26;76.18;;;30.73;;
35969;SDS011;22448;51.298;6.430;2023-11-21T03:08:55;77.95;;;30.40;;
35969;SDS011;22448;51.298;6.430;2023-11-21T03:11:23;70.60;;;30.90;;
35969;SDS011;22448;51.298;6.430;2023-11-21T03:13:50;87.43;;;30.58;;
35969;SDS011;22448;51.298;6.430;2023-11-21T03:16:20;79.05;;;30.05;;
35969;SDS011;22448;51.298;6.430;2023-11-21T03:18:47;85.80;;;31.80;;
35969;SDS011;22448;51.298;6.430;2023-11-21T03:21:14;79.38;;;30.58;;
35969;SDS011;22448;51.298;6.430;2023-11-21T03:23:42;82.22;;;30.40;;
35969;SDS011;22448;51.298;6.430;2023-11-21T03:26:11;70.85;;;30.00;;
35969;SDS011;22448;51.298;6.430;2023-11-21T03:28:39;76.18;;;30.27;;
35969;SDS011;22448;51.298;6.430;2023-11-21T03:31:07;76.25;;;30.98;;
35969;SDS011;22448;51.298;6.430;2023-11-21T03:33:35;79.88;;;30.38;;
35969;SDS011;22448;51.298;6.430;2023-11-21T03:36:06;82.82;;;30.40;;
35969;SDS011;22448;51.298;6.430;2023-11-21T03:38:34;73.60;;;29.55;;
35969;SDS011;22448;51.298;6.430;2023-11-21T03:41:01;81.07;;;30.90;;
35969;SDS011;22448;51.298;6.430;2023-11-21T03:43:29;86.97;;;31.48;;
35969;SDS011;22448;51.298;6.430;2023-11-21T03:45:56;80.25;;;30.95;;
35969;SDS011;22448;51.298;6.430;2023-11-21T03:48:23;91.60;;;32.47;;
35969;SDS011;22448;51.298;6.430;2023-11-21T03:50:50;85.97;;;29.85;;
35969;SDS011;22448;51.298;6.430;2023-11-21T03:53:17;75.93;;;30.48;;
35969;SDS011;22448;51.298;6.430;2023-11-21T03:55:44;77.63;;;29.55;;
35969;SDS011;22448;51.298;6.430;2023-11-21T03:58:12;85.32;;;30.20;;
35969;SDS011;22448;51.298;6.430;2023-11-21T04:00:40;79.93;;;31.52;;
35969;SDS011;22448;51.298;6.430;2023-11-21T04:03:07;81.57;;;31.17;;
35969;SDS011;22448;51.298;6.430;2023-11-21T04:05:34;87.40;;;33.10;;
35969;SDS011;22448;51.298;6.430;2023-11-21T04:08:02;92.60;;;33.00;;
35969;SDS011;22448;51.298;6.430;2023-11-21T04:10:29;88.80;;;33.20;;
35969;SDS011;22448;51.298;6.430;2023-11-21T04:12:56;91.68;;;32.47;;
35969;SDS011;22448;51.298;6.430;2023-11-21T04:15:24;94.07;;;31.52;;
35969;SDS011;22448;51.298;6.430;2023-11-21T04:17:51;90.95;;;32.72;;
35969;SDS011;22448;51.298;6.430;2023-11-21T04:20:18;88.72;;;31.40;;
35969;SDS011;22448;51.298;6.430;2023-11-21T04:22:45;89.97;;;32.67;;
35969;SDS011;22448;51.298;6.430;2023-11-21T04:25:13;88.97;;;32.95;;
35969;SDS011;22448;51.298;6.430;2023-11-21T04:27:43;111.63;;;34.22;;
35969;SDS011;22448;51.298;6.430;2023-11-21T04:30:11;88.82;;;32.70;;
35969;SDS011;22448;51.298;6.430;2023-11-21T04:32:39;96.95;;;32.90;;
35969;SDS011;22448;51.298;6.430;2023-11-21T04:35:08;91.95;;;31.73;;
35969;SDS011;22448;51.298;6.430;2023-11-21T04:37:36;91.82;;;31.73;;
35969;SDS011;22448;51.298;6.430;2023-11-21T04:40:03;95.78;;;34.80;;
35969;SDS011;22448;51.298;6.430;2023-11-21T04:42:34;96.57;;;33.83;;
35969;SDS011;22448;51.298;6.430;2023-11-21T04:45:04;86.47;;;31.77;;
35969;SDS011;22448;51.298;6.430;2023-11-21T04:47:35;86.05;;;32.45;;
35969;SDS011;22448;51.298;6.430;2023-11-21T04:50:03;94.63;;;31.80;;
35969;SDS011;22448;51.298;6.430;2023-11-21T04:52:31;85.55;;;32.72;;
35969;SDS011;22448;51.298;6.430;2023-11-21T04:54:59;95.55;;;31.60;;
35969;SDS011;22448;51.298;6.430;2023-11-21T04:57:28;93.88;;;32.58;;
35969;SDS011;22448;51.298;6.430;2023-11-21T04:59:55;83.13;;;32.08;;
35969;SDS011;22448;51.298;6.430;2023-11-21T05:02:22;97.30;;;34.45;;
35969;SDS011;22448;51.298;6.430;2023-11-21T05:05:01;91.13;;;32.92;;
35969;SDS011;22448;51.298;6.430;2023-11-21T05:07:29;92.50;;;34.47;;
35969;SDS011;22448;51.298;6.430;2023-11-21T05:09:58;106.05;;;35.50;;
35969;SDS011;22448;51.298;6.430;2023-11-21T05:12:25;99.40;;;34.88;;
35969;SDS011;22448;51.298;6.430;2023-11-21T05:14:52;112.78;;;36.35;;
35969;SDS011;22448;51.298;6.430;2023-11-21T05:17:19;94.53;;;36.90;;
35969;SDS011;22448;51.298;6.430;2023-11-21T05:19:47;94.22;;;36.47;;
35969;SDS011;22448;51.298;6.430;2023-11-21T05:22:15;98.28;;;35.50;;
35969;SDS011;22448;51.298;6.430;2023-11-21T05:24:43;96.43;;;36.88;;
35969;SDS011;22448;51.298;6.430;2023-11-21T05:27:10;108.75;;;37.85;;
35969;SDS011;22448;51.298;6.430;2023-11-21T05:29:37;102.68;;;39.05;;
35969;SDS011;22448;51.298;6.430;2023-11-21T05:32:04;104.15;;;38.38;;
35969;SDS011;22448;51.298;6.430;2023-11-21T05:34:31;107.60;;;38.58;;
35969;SDS011;22448;51.298;6.430;2023-11-21T05:36:59;114.53;;;39.38;;
35969;SDS011;22448;51.298;6.430;2023-11-21T05:39:26;121.07;;;40.42;;
35969;SDS011;22448;51.298;6.430;2023-11-21T05:41:54;112.47;;;39.45;;
35969;SDS011;22448;51.298;6.430;2023-11-21T05:44:22;127.13;;;42.13;;
35969;SDS011;22448;51.298;6.430;2023-11-21T05:46:51;114.57;;;39.70;;
35969;SDS011;22448;51.298;6.430;2023-11-21T05:49:18;130.02;;;42.05;;
35969;SDS011;22448;51.298;6.430;2023-11-21T05:51:48;132.23;;;42.90;;
35969;SDS011;22448;51.298;6.430;2023-11-21T05:54:15;125.13;;;43.08;;
35969;SDS011;22448;51.298;6.430;2023-11-21T05:56:42;110.68;;;40.65;;
35969;SDS011;22448;51.298;6.430;2023-11-21T05:59:09;115.40;;;38.78;;
35969;SDS011;22448;51.298;6.430;2023-11-21T06:01:37;129.02;;;43.88;;
35969;SDS011;22448;51.298;6.430;2023-11-21T06:04:05;126.97;;;45.92;;
35969;SDS011;22448;51.298;6.430;2023-11-21T06:06:35;130.57;;;46.85;;
35969;SDS011;22448;51.298;6.430;2023-11-21T06:09:02;155.50;;;52.35;;
35969;SDS011;22448;51.298;6.430;2023-11-21T06:11:29;139.93;;;50.38;;
35969;SDS011;22448;51.298;6.430;2023-11-21T06:13:57;142.05;;;52.50;;
35969;SDS011;22448;51.298;6.430;2023-11-21T06:16:27;128.43;;;49.22;;
35969;SDS011;22448;51.298;6.430;2023-11-21T06:18:55;132.52;;;49.10;;
35969;SDS011;22448;51.298;6.430;2023-11-21T06:21:22;132.63;;;48.97;;
35969;SDS011;22448;51.298;6.430;2023-11-21T06:23:50;139.15;;;50.17;;
35969;SDS011;22448;51.298;6.430;2023-11-21T06:26:19;141.75;;;50.63;;
35969;SDS011;22448;51.298;6.430;2023-11-21T06:28:47;150.65;;;51.42;;
35969;SDS011;22448;51.298;6.430;2023-11-21T06:31:14;146.07;;;52.58;;
35969;SDS011;22448;51.298;6.430;2023-11-21T06:33:41;158.30;;;51.22;;
35969;SDS011;22448;51.298;6.430;2023-11-21T06:36:09;142.63;;;50.67;;
35969;SDS011;22448;51.298;6.430;2023-11-21T06:38:38;153.40;;;52.47;;
35969;SDS011;22448;51.298;6.430;2023-11-21T06:41:05;140.18;;;49.97;;
35969;SDS011;22448;51.298;6.430;2023-11-21T06:43:33;140.68;;;51.33;;
35969;SDS011;22448;51.298;6.430;2023-11-21T06:46:01;148.93;;;52.45;;
35969;SDS011;22448;51.298;6.430;2023-11-21T06:48:28;156.27;;;52.67;;
35969;SDS011;22448;51.298;6.430;2023-11-21T06:50:56;156.05;;;53.83;;
35969;SDS011;22448;51.298;6.430;2023-11-21T06:53:24;153.80;;;51.47;;
35969;SDS011;22448;51.298;6.430;2023-11-21T06:55:51;156.20;;;48.88;;
35969;SDS011;22448;51.298;6.430;2023-11-21T06:58:18;150.77;;;51.92;;
35969;SDS011;22448;51.298;6.430;2023-11-21T07:00:45;160.55;;;50.53;;
35969;SDS011;22448;51.298;6.430;2023-11-21T07:03:15;167.10;;;54.38;;
35969;SDS011;22448;51.298;6.430;2023-11-21T07:05:42;157.43;;;53.38;;
35969;SDS011;22448;51.298;6.430;2023-11-21T07:08:09;168.65;;;53.42;;
35969;SDS011;22448;51.298;6.430;2023-11-21T07:10:37;146.65;;;51.05;;
35969;SDS011;22448;51.298;6.430;2023-11-21T07:13:04;147.40;;;48.97;;
35969;SDS011;22448;51.298;6.430;2023-11-21T07:15:31;158.65;;;53.03;;
35969;SDS011;22448;51.298;6.430;2023-11-21T07:17:59;161.63;;;52.60;;
35969;SDS011;22448;51.298;6.430;2023-11-21T07:20:26;146.30;;;50.00;;
35969;SDS011;22448;51.298;6.430;2023-11-21T07:22:54;162.68;;;51.25;;
35969;SDS011;22448;51.298;6.430;2023-11-21T07:25:22;144.40;;;50.03;;
35969;SDS011;22448;51.298;6.430;2023-11-21T07:27:49;160.32;;;54.20;;
35969;SDS011;22448;51.298;6.430;2023-11-21T07:30:16;159.23;;;51.92;;
35969;SDS011;22448;51.298;6.430;2023-11-21T07:32:47;142.02;;;50.45;;
35969;SDS011;22448;51.298;6.430;2023-11-21T07:35:14;146.18;;;50.80;;
35969;SDS011;22448;51.298;6.430;2023-11-21T07:37:41;155.38;;;50.78;;
35969;SDS011;22448;51.298;6.430;2023-11-21T07:40:10;149.73;;;50.35;;
35969;SDS011;22448;51.298;6.430;2023-11-21T07:42:38;142.32;;;48.92;;
35969;SDS011;22448;51.298;6.430;2023-11-21T07:45:05;137.77;;;49.35;;
35969;SDS011;22448;51.298;6.430;2023-11-21T07:47:33;154.38;;;49.92;;
35969;SDS011;22448;51.298;6.430;2023-11-21T07:50:04;157.90;;;52.88;;
35969;SDS011;22448;51.298;6.430;2023-11-21T07:52:32;138.80;;;48.63;;
35969;SDS011;22448;51.298;6.430;2023-11-21T07:54:59;147.60;;;51.60;;
35969;SDS011;22448;51.298;6.430;2023-11-21T07:57:26;150.95;;;50.08;;
35969;SDS011;22448;51.298;6.430;2023-11-21T07:59:53;145.30;;;50.15;;
35969;SDS011;22448;51.298;6.430;2023-11-21T08:02:21;142.57;;;48.45;;
35969;SDS011;22448;51.298;6.430;2023-11-21T08:04:48;140.80;;;48.45;;
35969;SDS011;22448;51.298;6.430;2023-11-21T08:07:17;136.20;;;48.03;;
35969;SDS011;22448;51.298;6.430;2023-11-21T08:09:44;134.35;;;48.20;;
35969;SDS011;22448;51.298;6.430;2023-11-21T08:12:13;131.35;;;47.17;;
35969;SDS011;22448;51.298;6.430;2023-11-21T08:14:41;126.10;;;46.92;;
35969;SDS011;22448;51.298;6.430;2023-11-21T08:17:09;115.90;;;43.33;;
35969;SDS011;22448;51.298;6.430;2023-11-21T08:19:37;118.75;;;44.30;;
35969;SDS011;22448;51.298;6.430;2023-11-21T08:22:04;121.13;;;46.53;;
35969;SDS011;22448;51.298;6.430;2023-11-21T08:24:32;130.93;;;47.15;;
35969;SDS011;22448;51.298;6.430;2023-11-21T08:27:00;121.43;;;42.40;;
35969;SDS011;22448;51.298;6.430;2023-11-21T08:29:27;98.03;;;38.95;;
35969;SDS011;22448;51.298;6.430;2023-11-21T08:31:54;107.95;;;40.75;;
35969;SDS011;22448;51.298;6.430;2023-11-21T08:34:22;117.85;;;41.92;;
35969;SDS011;22448;51.298;6.430;2023-11-21T08:36:50;100.20;;;39.70;;
35969;SDS011;22448;51.298;6.430;2023-11-21T08:39:17;100.15;;;38.78;;
35969;SDS011;22448;51.298;6.430;2023-11-21T08:41:45;108.82;;;40.03;;
35969;SDS011;22448;51.298;6.430;2023-11-21T08:44:13;104.00;;;39.03;;
35969;SDS011;22448;51.298;6.430;2023-11-21T08:46:40;95.63;;;37.65;;
35969;SDS011;22448;51.298;6.430;2023-11-21T08:49:08;97.07;;;37.97;;
35969;SDS011;22448;51.298;6.430;2023-11-21T08:51:35;101.93;;;37.55;;
35969;SDS011;22448;51.298;6.430;2023-11-21T08:54:03;86.38;;;37.22;;
35969;SDS011;22448;51.298;6.430;2023-11-21T08:56:34;89.55;;;37.42;;
35969;SDS011;22448;51.298;6.430;2023-11-21T08:59:01;80.32;;;37.15;;
35969;SDS011;22448;51.298;6.430;2023-11-21T09:01:29;84.68;;;36.05;;
35969;SDS011;22448;51.298;6.430;2023-11-21T09:03:59;89.13;;;33.70;;
35969;SDS011;22448;51.298;6.430;2023-11-21T09:06:26;78.53;;;33.10;;
35969;SDS011;22448;51.298;6.430;2023-11-21T09:08:54;79.18;;;34.30;;
35969;SDS011;22448;51.298;6.430;2023-11-21T09:11:21;81.22;;;32.75;;
35969;SDS011;22448;51.298;6.430;2023-11-21T09:13:48;82.78;;;32.65;;
35969;SDS011;22448;51.298;6.430;2023-11-21T09:16:15;72.68;;;32.65;;
35969;SDS011;22448;51.298;6.430;2023-11-21T09:18:42;70.88;;;32.10;;
35969;SDS011;22448;51.298;6.430;2023-11-21T09:21:09;73.75;;;31.20;;
35969;SDS011;22448;51.298;6.430;2023-11-21T09:23:37;74.50;;;32.35;;
35969;SDS011;22448;51.298;6.430;2023-11-21T09:26:04;76.68;;;32.67;;
35969;SDS011;22448;51.298;6.430;2023-11-21T09:28:32;65.45;;;29.38;;
35969;SDS011;22448;51.298;6.430;2023-11-21T09:30:59;72.95;;;31.27;;
35969;SDS011;22448;51.298;6.430;2023-11-21T09:33:28;73.35;;;30.55;;
35969;SDS011;22448;51.298;6.430;2023-11-21T09:35:57;70.57;;;30.63;;
35969;SDS011;22448;51.298;6.430;2023-11-21T09:38:24;69.93;;;31.20;;
35969;SDS011;22448;51.298;6.430;2023-11-21T09:40:51;76.68;;;29.95;;
35969;SDS011;22448;51.298;6.430;2023-11-21T09:43:20;68.55;;;29.35;;
35969;SDS011;22448;51.298;6.430;2023-11-21T09:45:54;71.03;;;29.80;;
35969;SDS011;22448;51.298;6.430;2023-11-21T09:48:27;64.13;;;28.73;;
35969;SDS011;22448;51.298;6.430;2023-11-21T09:50:57;66.75;;;29.75;;
35969;SDS011;22448;51.298;6.430;2023-11-21T09:53:26;65.45;;;29.27;;
35969;SDS011;22448;51.298;6.430;2023-11-21T09:55:56;60.33;;;28.23;;
35969;SDS011;22448;51.298;6.430;2023-11-21T09:58:26;61.80;;;29.42;;
35969;SDS011;22448;51.298;6.430;2023-11-21T10:00:54;60.55;;;26.70;;
35969;SDS011;22448;51.298;6.430;2023-11-21T10:03:23;56.63;;;27.30;;
35969;SDS011;22448;51.298;6.430;2023-11-21T10:05:51;59.58;;;27.92;;
35969;SDS011;22448;51.298;6.430;2023-11-21T10:08:20;52.78;;;26.05;;
35969;SDS011;22448;51.298;6.430;2023-11-21T10:10:51;53.63;;;27.50;;
35969;SDS011;22448;51.298;6.430;2023-11-21T10:13:20;55.97;;;27.10;;
35969;SDS011;22448;51.298;6.430;2023-11-21T10:15:49;51.78;;;24.98;;
35969;SDS011;22448;51.298;6.430;2023-11-21T10:18:18;53.15;;;24.63;;
35969;SDS011;22448;51.298;6.430;2023-11-21T10:20:46;48.60;;;24.25;;
35969;SDS011;22448;51.298;6.430;2023-11-21T10:25:47;50.33;;;24.00;;
35969;SDS011;22448;51.298;6.430;2023-11-21T10:28:16;52.20;;;24.75;;
35969;SDS011;22448;51.298;6.430;2023-11-21T10:30:43;56.50;;;25.65;;
35969;SDS011;22448;51.298;6.430;2023-11-21T10:33:11;58.60;;;26.50;;
35969;SDS011;22448;51.298;6.430;2023-11-21T10:35:40;67.82;;;25.38;;
35969;SDS011;22448;51.298;6.430;2023-11-21T10:38:21;51.85;;;23.92;;
35969;SDS011;22448;51.298;6.430;2023-11-21T10:40:50;49.00;;;23.13;;
35969;SDS011;22448;51.298;6.430;2023-11-21T10:43:18;53.38;;;24.45;;
35969;SDS011;22448;51.298;6.430;2023-11-21T10:45:46;53.88;;;24.55;;
35969;SDS011;22448;51.298;6.430;2023-11-21T10:48:13;45.25;;;23.98;;
35969;SDS011;22448;51.298;6.430;2023-11-21T10:50:45;51.38;;;26.15;;
35969;SDS011;22448;51.298;6.430;2023-11-21T10:53:13;60.60;;;25.35;;
35969;SDS011;22448;51.298;6.430;2023-11-21T10:55:42;50.28;;;26.77;;
35969;SDS011;22448;51.298;6.430;2023-11-21T10:58:11;46.50;;;23.77;;
35969;SDS011;22448;51.298;6.430;2023-11-21T11:00:40;48.45;;;24.42;;
35969;SDS011;22448;51.298;6.430;2023-11-21T11:03:07;57.13;;;23.50;;
35969;SDS011;22448;51.298;6.430;2023-11-21T11:05:43;57.30;;;25.42;;
35969;SDS011;22448;51.298;6.430;2023-11-21T11:08:21;54.13;;;22.67;;
35969;SDS011;22448;51.298;6.430;2023-11-21T11:10:54;47.38;;;21.38;;
35969;SDS011;22448;51.298;6.430;2023-11-21T11:13:22;42.40;;;21.25;;
35969;SDS011;22448;51.298;6.430;2023-11-21T11:15:51;50.42;;;21.88;;
35969;SDS011;22448;51.298;6.430;2023-11-21T11:18:26;47.03;;;22.52;;
35969;SDS011;22448;51.298;6.430;2023-11-21T11:20:53;48.22;;;23.05;;
35969;SDS011;22448;51.298;6.430;2023-11-21T11:23:33;54.45;;;25.00;;
35969;SDS011;22448;51.298;6.430;2023-11-21T11:29:17;46.80;;;22.98;;
35969;SDS011;22448;51.298;6.430;2023-11-21T11:34:30;45.42;;;22.73;;
35969;SDS011;22448;51.298;6.430;2023-11-21T11:37:07;51.90;;;24.83;;
35969;SDS011;22448;51.298;6.430;2023-11-21T11:39:39;54.83;;;24.88;;
35969;SDS011;22448;51.298;6.430;2023-11-21T11:42:14;47.67;;;23.73;;
35969;SDS011;22448;51.298;6.430;2023-11-21T11:47:14;54.88;;;23.60;;
35969;SDS011;22448;51.298;6.430;2023-11-21T11:49:57;53.00;;;25.13;;
35969;SDS011;22448;51.298;6.430;2023-11-21T11:52:44;46.15;;;22.60;;
35969;SDS011;22448;51.298;6.430;2023-11-21T11:55:21;50.75;;;23.42;;
35969;SDS011;22448;51.298;6.430;2023-11-21T11:57:51;44.53;;;21.73;;
35969;SDS011;22448;51.298;6.430;2023-11-21T12:00:32;46.85;;;21.40;;
35969;SDS011;22448;51.298;6.430;2023-11-21T12:03:04;49.92;;;23.35;;
35969;SDS011;22448;51.298;6.430;2023-11-21T12:05:34;46.88;;;23.15;;
35969;SDS011;22448;51.298;6.430;2023-11-21T12:08:05;49.25;;;23.88;;
35969;SDS011;22448;51.298;6.430;2023-11-21T12:10:34;47.13;;;23.45;;
35969;SDS011;22448;51.298;6.430;2023-11-21T12:13:07;46.83;;;23.75;;
35969;SDS011;22448;51.298;6.430;2023-11-21T12:15:37;48.92;;;23.17;;
35969;SDS011;22448;51.298;6.430;2023-11-21T12:18:07;51.67;;;24.75;;
35969;SDS011;22448;51.298;6.430;2023-11-21T12:20:35;54.28;;;25.77;;
35969;SDS011;22448;51.298;6.430;2023-11-21T12:23:09;52.15;;;24.85;;
35969;SDS011;22448;51.298;6.430;2023-11-21T12:25:37;60.78;;;26.20;;
35969;SDS011;22448;51.298;6.430;2023-11-21T12:28:09;59.42;;;24.92;;
35969;SDS011;22448;51.298;6.430;2023-11-21T12:30:36;58.47;;;26.23;;
35969;SDS011;22448;51.298;6.430;2023-11-21T12:33:05;58.38;;;27.23;;
35969;SDS011;22448;51.298;6.430;2023-11-21T12:35:35;53.30;;;25.77;;
35969;SDS011;22448;51.298;6.430;2023-11-21T12:38:03;61.03;;;26.48;;
35969;SDS011;22448;51.298;6.430;2023-11-21T12:40:31;54.97;;;24.45;;
35969;SDS011;22448;51.298;6.430;2023-11-21T12:42:59;58.80;;;26.73;;
35969;SDS011;22448;51.298;6.430;2023-11-21T12:45:34;57.35;;;27.20;;
35969;SDS011;22448;51.298;6.430;2023-11-21T12:48:02;54.72;;;25.65;;
35969;SDS011;22448;51.298;6.430;2023-11-21T12:50:35;59.92;;;27.70;;
35969;SDS011;22448;51.298;6.430;2023-11-21T12:53:08;58.67;;;26.38;;
35969;SDS011;22448;51.298;6.430;2023-11-21T12:55:39;62.42;;;27.33;;
35969;SDS011;22448;51.298;6.430;2023-11-21T12:58:09;59.05;;;27.15;;
35969;SDS011;22448;51.298;6.430;2023-11-21T13:00:40;59.25;;;28.10;;
35969;SDS011;22448;51.298;6.430;2023-11-21T13:03:10;55.53;;;27.85;;
35969;SDS011;22448;51.298;6.430;2023-11-21T13:05:52;68.00;;;29.13;;
35969;SDS011;22448;51.298;6.430;2023-11-21T13:08:24;60.05;;;29.10;;
35969;SDS011;22448;51.298;6.430;2023-11-21T13:10:53;63.65;;;28.73;;
35969;SDS011;22448;51.298;6.430;2023-11-21T13:13:24;73.40;;;30.07;;
35969;SDS011;22448;51.298;6.430;2023-11-21T13:15:55;60.88;;;29.30;;
35969;SDS011;22448;51.298;6.430;2023-11-21T13:18:23;67.53;;;30.17;;
35969;SDS011;22448;51.298;6.430;2023-11-21T13:20:53;58.83;;;28.17;;
35969;SDS011;22448;51.298;6.430;2023-11-21T13:23:22;61.90;;;27.63;;
35969;SDS011;22448;51.298;6.430;2023-11-21T13:25:50;62.67;;;28.83;;
35969;SDS011;22448;51.298;6.430;2023-11-21T13:28:28;60.75;;;28.45;;
35969;SDS011;22448;51.298;6.430;2023-11-21T13:30:59;76.00;;;32.08;;
35969;SDS011;22448;51.298;6.430;2023-11-21T13:33:38;59.90;;;30.23;;
35969;SDS011;22448;51.298;6.430;2023-11-21T13:36:07;67.18;;;29.40;;
35969;SDS011;22448;51.298;6.430;2023-11-21T13:38:37;62.58;;;28.52;;
35969;SDS011;22448;51.298;6.430;2023-11-21T13:41:09;58.07;;;27.90;;
35969;SDS011;22448;51.298;6.430;2023-11-21T13:43:39;58.33;;;27.73;;
35969;SDS011;22448;51.298;6.430;2023-11-21T13:46:10;57.20;;;27.63;;
35969;SDS011;22448;51.298;6.430;2023-11-21T13:48:43;48.65;;;25.08;;
35969;SDS011;22448;51.298;6.430;2023-11-21T13:51:18;48.25;;;25.90;;
35969;SDS011;22448;51.298;6.430;2023-11-21T13:53:47;43.58;;;25.15;;
35969;SDS011;22448;51.298;6.430;2023-11-21T13:56:17;52.38;;;26.45;;
35969;SDS011;22448;51.298;6.430;2023-11-21T13:58:52;54.30;;;26.48;;
35969;SDS011;22448;51.298;6.430;2023-11-21T14:01:21;51.38;;;25.92;;
35969;SDS011;22448;51.298;6.430;2023-11-21T14:03:59;54.40;;;27.45;;
35969;SDS011;22448;51.298;6.430;2023-11-21T14:06:43;51.75;;;28.02;;
35969;SDS011;22448;51.298;6.430;2023-11-21T14:09:18;59.17;;;29.17;;
35969;SDS011;22448;51.298;6.430;2023-11-21T14:11:56;56.33;;;27.92;;
35969;SDS011;22448;51.298;6.430;2023-11-21T14:14:24;63.33;;;30.38;;
35969;SDS011;22448;51.298;6.430;2023-11-21T14:16:53;56.40;;;26.85;;
35969;SDS011;22448;51.298;6.430;2023-11-21T14:19:22;55.70;;;27.42;;
35969;SDS011;22448;51.298;6.430;2023-11-21T14:21:54;49.05;;;27.35;;
35969;SDS011;22448;51.298;6.430;2023-11-21T14:24:21;53.60;;;28.20;;
35969;SDS011;22448;51.298;6.430;2023-11-21T14:26:50;50.75;;;26.77;;
35969;SDS011;22448;51.298;6.430;2023-11-21T14:29:18;49.95;;;28.40;;
35969;SDS011;22448;51.298;6.430;2023-11-21T14:31:50;51.72;;;27.20;;
35969;SDS011;22448;51.298;6.430;2023-11-21T14:34:20;61.67;;;29.75;;
35969;SDS011;22448;51.298;6.430;2023-11-21T14:36:49;54.17;;;26.75;;
35969;SDS011;22448;51.298;6.430;2023-11-21T14:39:17;48.15;;;26.35;;
35969;SDS011;22448;51.298;6.430;2023-11-21T14:41:51;48.08;;;24.88;;